CheckWX is a tool to help pilots better visualize weather data.  It is not intended as a substitute for an official pre-flight weather briefing.

03:31:21 UTC

EICK METAR
Cork Airport
Cork, Ireland
Current

31 mins ago

EICK 220300Z 23012KT 210V270 9999 BKN010 OVC019 17/16 Q1015 TEMPO 4000 BKN002
Observed
Jul-22 @ 03:00 UTC
Wind
  • 230° at 12 KTS
Visibility
10,000+ meters
Flight Rules
MVFR
Cloud Levels
  • Broken at 1,000' AGL
  • Overcast at 1,900' AGL
Temperature
17°C / 63°F
Dewpoint
16°C / 61°F
Humidity
94%
Altimeter
29.97" Hg
Pressure
1014.92 hPa
Previous

1 hour ago

EICK 220230Z 22011KT 9000 BKN003 OVC016 17/17 Q1015 TEMPO 4000 BKN002
Observed
Jul-22 @ 02:30 UTC
Wind
  • 220° at 11 KTS
Visibility
9,000 meters
Flight Rules
LIFR
Cloud Levels
  • Broken at 300' AGL
  • Overcast at 1,600' AGL
Temperature
17°C / 63°F
Dewpoint
17°C / 63°F
Humidity
100%
Altimeter
29.97" Hg
Pressure
1014.92 hPa
Previous

2 hours ago

EICK 220200Z 22011KT 4500 -DZ BKN003 OVC014 17/17 Q1015 TEMPO 0400 -RADZ FG BKN001
Observed
Jul-22 @ 02:00 UTC
Wind
  • 220° at 11 KTS
Visibility
4,500 meters
Flight Rules
LIFR
Conditions
Light Drizzle
Cloud Levels
  • Broken at 300' AGL
  • Overcast at 1,400' AGL
Temperature
17°C / 63°F
Dewpoint
17°C / 63°F
Humidity
100%
Altimeter
29.97" Hg
Pressure
1014.92 hPa